createdAt,value
2018-01-14T00:00:00.620Z,6.90
2018-01-14T00:02:28.141Z,6.80
2018-01-14T00:04:55.683Z,6.60
2018-01-14T00:07:23.196Z,6.70
2018-01-14T00:09:50.736Z,6.80
2018-01-14T00:12:18.264Z,6.70
2018-01-14T00:14:45.802Z,6.60
2018-01-14T00:17:13.352Z,6.60
2018-01-14T00:19:40.903Z,6.60
2018-01-14T00:22:08.487Z,6.60
2018-01-14T00:24:36.002Z,6.60
2018-01-14T00:27:04.315Z,6.70
2018-01-14T00:29:31.877Z,6.60
2018-01-14T00:31:59.401Z,6.70
2018-01-14T00:34:26.959Z,6.60
2018-01-14T00:36:54.478Z,6.60
2018-01-14T00:39:21.983Z,6.60
2018-01-14T00:41:49.574Z,6.80
2018-01-14T00:44:17.098Z,6.80
2018-01-14T00:46:44.670Z,6.70
2018-01-14T00:49:12.204Z,6.70
2018-01-14T00:51:39.767Z,6.70
2018-01-14T00:54:07.329Z,6.60
2018-01-14T00:56:35.642Z,6.60
2018-01-14T00:59:03.171Z,6.60
2018-01-14T01:01:31.475Z,6.60
2018-01-14T01:03:59.014Z,6.60
2018-01-14T01:06:26.564Z,6.60
2018-01-14T01:08:54.079Z,6.60
2018-01-14T01:11:21.624Z,6.60
2018-01-14T01:13:49.166Z,6.60
2018-01-14T01:16:17.897Z,6.60
2018-01-14T01:18:45.482Z,6.50
2018-01-14T01:21:12.995Z,6.60
2018-01-14T01:23:40.587Z,6.50
2018-01-14T01:26:08.097Z,6.40
2018-01-14T01:28:35.640Z,6.50
2018-01-14T01:31:03.155Z,6.50
2018-01-14T01:33:30.705Z,6.50
2018-01-14T01:35:58.219Z,6.50
2018-01-14T01:38:25.759Z,6.50
2018-01-14T01:40:53.276Z,6.60
2018-01-14T01:43:20.865Z,6.50
2018-01-14T01:45:48.372Z,6.60
2018-01-14T01:48:15.936Z,6.60
2018-01-14T01:50:43.488Z,6.60
2018-01-14T01:53:11.008Z,6.60
2018-01-14T01:55:38.538Z,6.40
2018-01-14T01:58:06.052Z,6.40
2018-01-14T02:00:33.591Z,6.40
2018-01-14T02:03:01.877Z,6.40
2018-01-14T02:05:29.418Z,6.30
2018-01-14T02:07:57.695Z,6.30
2018-01-14T02:10:25.250Z,6.30
2018-01-14T02:12:52.763Z,6.30
2018-01-14T02:15:20.306Z,6.40
2018-01-14T02:17:47.816Z,6.40
2018-01-14T02:20:15.354Z,6.50
2018-01-14T02:22:42.881Z,6.50
2018-01-14T02:25:11.217Z,6.60
2018-01-14T02:27:38.751Z,6.60
2018-01-14T02:30:06.260Z,6.60
2018-01-14T02:32:33.810Z,6.50
2018-01-14T02:35:01.321Z,6.50
2018-01-14T02:37:28.864Z,6.50
2018-01-14T02:39:56.383Z,6.60
2018-01-14T02:42:23.937Z,6.40
2018-01-14T02:44:51.472Z,6.30
2018-01-14T02:47:19.064Z,6.30
2018-01-14T02:49:46.583Z,6.40
2018-01-14T02:52:14.108Z,6.40
2018-01-14T02:54:41.682Z,6.40
2018-01-14T02:57:09.196Z,6.40
2018-01-14T02:59:36.763Z,6.40
2018-01-14T03:02:04.280Z,6.30
2018-01-14T03:04:31.828Z,6.30
2018-01-14T03:06:59.353Z,6.30
2018-01-14T03:09:26.874Z,6.30
2018-01-14T03:11:54.423Z,6.30
2018-01-14T03:14:21.935Z,6.30
2018-01-14T03:16:49.520Z,6.30
2018-01-14T03:19:17.095Z,6.30
2018-01-14T03:21:44.601Z,6.40
2018-01-14T03:24:12.172Z,6.40
2018-01-14T03:26:39.715Z,6.30
2018-01-14T03:29:07.228Z,6.30
2018-01-14T03:31:34.766Z,6.30
2018-01-14T03:34:02.294Z,6.40
2018-01-14T03:36:29.839Z,6.40
2018-01-14T03:38:57.368Z,6.40
2018-01-14T03:41:24.935Z,6.40
2018-01-14T03:43:52.456Z,6.40
2018-01-14T03:46:19.967Z,6.30
2018-01-14T03:48:47.551Z,6.30
2018-01-14T03:51:15.834Z,6.30
2018-01-14T03:53:43.425Z,6.30
2018-01-14T03:56:10.956Z,6.30
2018-01-14T03:58:38.508Z,6.40
2018-01-14T04:01:06.026Z,6.30
2018-01-14T04:03:33.535Z,6.30
2018-01-14T04:06:01.092Z,6.20
2018-01-14T04:08:28.607Z,6.30
2018-01-14T04:10:56.143Z,6.30
2018-01-14T04:13:23.677Z,6.20
2018-01-14T04:15:51.198Z,6.30
2018-01-14T04:18:18.744Z,6.30
2018-01-14T04:20:46.251Z,6.20
2018-01-14T04:23:13.786Z,6.30
2018-01-14T04:25:42.095Z,6.30
2018-01-14T04:28:09.627Z,6.30
2018-01-14T04:30:37.923Z,6.20
2018-01-14T04:33:05.472Z,6.20
2018-01-14T04:35:33.754Z,6.10
2018-01-14T04:38:01.308Z,6.10
2018-01-14T04:40:29.588Z,6.20
2018-01-14T04:42:57.104Z,6.20
2018-01-14T04:45:24.644Z,6.10
2018-01-14T04:47:52.163Z,6.20
2018-01-14T04:50:19.711Z,6.20
2018-01-14T04:52:47.250Z,6.30
2018-01-14T04:55:14.802Z,6.20
2018-01-14T04:57:42.329Z,6.20
2018-01-14T05:00:09.875Z,6.20
2018-01-14T05:02:37.420Z,6.30
2018-01-14T05:05:05.755Z,6.20
2018-01-14T05:07:33.309Z,6.20
2018-01-14T05:10:00.837Z,6.10
2018-01-14T05:12:28.387Z,6.20
2018-01-14T05:14:55.901Z,6.10
2018-01-14T05:17:23.453Z,6.30
2018-01-14T05:19:51.021Z,6.20
2018-01-14T05:22:18.594Z,6.20
2018-01-14T05:24:46.133Z,6.20
2018-01-14T05:27:13.677Z,6.10
2018-01-14T05:29:41.220Z,6.20
2018-01-14T05:32:08.767Z,6.20
2018-01-14T05:34:36.297Z,6.20
2018-01-14T05:37:03.840Z,6.20
2018-01-14T05:39:31.422Z,6.30
2018-01-14T05:41:58.989Z,6.30
2018-01-14T05:44:26.507Z,6.40
2018-01-14T05:46:54.116Z,6.50
2018-01-14T05:49:22.445Z,6.50
2018-01-14T05:51:49.980Z,6.50
2018-01-14T05:54:17.532Z,6.50
2018-01-14T05:56:45.112Z,6.40
2018-01-14T05:59:12.670Z,6.50
2018-01-14T06:01:41.182Z,6.40
2018-01-14T06:04:08.739Z,6.30
2018-01-14T06:06:36.254Z,6.40
2018-01-14T06:09:03.795Z,6.40
2018-01-14T06:11:31.344Z,6.40
2018-01-14T06:13:58.864Z,6.50
2018-01-14T06:16:26.404Z,6.50
2018-01-14T06:18:53.964Z,6.50
2018-01-14T06:21:21.482Z,6.50
2018-01-14T06:23:49.018Z,6.40
2018-01-14T06:26:16.568Z,6.40
2018-01-14T06:28:44.134Z,6.40
2018-01-14T06:31:11.647Z,6.40
2018-01-14T06:33:39.205Z,6.40
2018-01-14T06:36:06.711Z,6.40
2018-01-14T06:38:34.243Z,6.50
2018-01-14T06:41:01.754Z,6.50
2018-01-14T06:43:29.299Z,6.50
2018-01-14T06:45:56.807Z,6.40
2018-01-14T06:48:24.347Z,6.30
2018-01-14T06:50:51.850Z,6.30
2018-01-14T06:53:19.405Z,6.30
2018-01-14T06:55:46.956Z,6.40
2018-01-14T06:58:14.456Z,6.30
2018-01-14T07:00:42.023Z,6.30
2018-01-14T07:03:09.532Z,6.40
2018-01-14T07:05:37.041Z,6.40
2018-01-14T07:08:05.356Z,6.40
2018-01-14T07:10:32.865Z,6.40
2018-01-14T07:13:00.390Z,6.50
2018-01-14T07:15:28.045Z,6.50
2018-01-14T07:17:55.558Z,6.50
2018-01-14T07:20:23.830Z,6.50
2018-01-14T07:22:51.355Z,6.40
2018-01-14T07:25:18.896Z,6.40
2018-01-14T07:27:47.284Z,6.40
2018-01-14T07:30:14.868Z,6.50
2018-01-14T07:32:42.368Z,6.60
2018-01-14T07:35:09.877Z,6.60
2018-01-14T07:37:37.420Z,6.60
2018-01-14T07:40:04.953Z,6.70
2018-01-14T07:42:32.488Z,6.60
2018-01-14T07:44:59.996Z,6.50
2018-01-14T07:47:27.568Z,6.50
2018-01-14T07:49:55.090Z,6.60
2018-01-14T07:52:22.631Z,6.50
2018-01-14T07:54:50.139Z,6.50
2018-01-14T07:57:17.763Z,6.50
2018-01-14T07:59:45.279Z,6.40
2018-01-14T08:02:12.793Z,6.40
2018-01-14T08:04:40.356Z,6.40
2018-01-14T08:07:07.854Z,6.30
2018-01-14T08:09:35.414Z,6.30
2018-01-14T08:12:02.951Z,6.40
2018-01-14T08:14:30.491Z,6.40
2018-01-14T08:16:58.007Z,6.30
2018-01-14T08:19:25.546Z,6.40
2018-01-14T08:21:53.073Z,6.50
2018-01-14T08:24:20.616Z,6.50
2018-01-14T08:26:48.120Z,6.50
2018-01-14T08:29:15.671Z,6.50
2018-01-14T08:31:43.188Z,6.40
2018-01-14T08:34:10.692Z,6.40
2018-01-14T08:36:38.244Z,6.50
2018-01-14T08:39:05.750Z,6.50
2018-01-14T08:41:33.294Z,6.50
2018-01-14T08:44:00.811Z,6.50
2018-01-14T08:46:28.360Z,6.50
2018-01-14T08:48:55.887Z,6.40
2018-01-14T08:51:23.412Z,6.40
2018-01-14T08:53:50.929Z,6.40
2018-01-14T08:56:18.439Z,6.60
2018-01-14T08:58:46.001Z,6.60
2018-01-14T09:01:13.508Z,6.70
2018-01-14T09:03:41.104Z,6.60
2018-01-14T09:06:08.655Z,6.60
2018-01-14T09:08:36.173Z,6.60
2018-01-14T09:11:03.703Z,6.70
2018-01-14T09:13:31.231Z,6.60
2018-01-14T09:15:58.739Z,6.60
2018-01-14T09:18:27.044Z,6.70
2018-01-14T09:20:54.593Z,6.70
2018-01-14T09:23:22.329Z,6.70
2018-01-14T09:25:50.639Z,6.70
2018-01-14T09:28:18.177Z,6.70
2018-01-14T09:31:02.481Z,6.80
2018-01-14T09:33:30.019Z,6.80
2018-01-14T09:35:57.528Z,6.70
2018-01-14T09:38:25.086Z,6.80
2018-01-14T09:40:52.668Z,6.80
2018-01-14T09:43:20.161Z,6.90
2018-01-14T09:45:47.688Z,6.90
2018-01-14T09:48:15.222Z,7.00
2018-01-14T09:50:42.760Z,7.10
2018-01-14T09:53:10.264Z,7.10
2018-01-14T09:55:37.787Z,6.90
2018-01-14T09:58:05.356Z,7.00
2018-01-14T10:00:32.900Z,7.10
2018-01-14T10:03:00.442Z,7.10
2018-01-14T10:05:27.985Z,7.00
2018-01-14T10:07:55.539Z,7.00
2018-01-14T10:10:23.093Z,6.90
2018-01-14T10:12:50.632Z,6.90
2018-01-14T10:15:18.147Z,7.00
2018-01-14T10:17:45.696Z,7.00
2018-01-14T10:20:13.204Z,7.10
2018-01-14T10:22:41.524Z,7.20
2018-01-14T10:25:09.077Z,7.20
2018-01-14T10:27:36.617Z,7.20
2018-01-14T10:30:04.164Z,7.20
2018-01-14T10:32:31.702Z,7.20
2018-01-14T10:34:59.266Z,7.10
2018-01-14T10:37:26.824Z,7.10
2018-01-14T10:39:54.340Z,7.10
2018-01-14T10:42:21.846Z,7.10
2018-01-14T10:44:49.436Z,7.10
2018-01-14T10:47:16.956Z,7.20
2018-01-14T10:49:44.501Z,7.20
2018-01-14T10:52:12.035Z,7.20
2018-01-14T10:54:39.556Z,7.20
2018-01-14T10:57:07.084Z,7.30
2018-01-14T10:59:34.623Z,7.30
2018-01-14T11:02:02.246Z,7.30
2018-01-14T11:04:29.801Z,7.30
2018-01-14T11:06:57.387Z,7.40
2018-01-14T11:09:24.917Z,7.40
2018-01-14T11:11:52.475Z,7.40
2018-01-14T11:14:20.008Z,7.30
2018-01-14T11:16:47.571Z,7.30
2018-01-14T11:19:15.090Z,7.30
2018-01-14T11:21:42.654Z,7.30
2018-01-14T11:24:10.205Z,7.30
2018-01-14T11:26:37.732Z,7.30
2018-01-14T11:29:06.020Z,7.40
2018-01-14T11:31:33.523Z,7.30
2018-01-14T11:34:01.035Z,7.30
2018-01-14T11:36:28.570Z,7.30
2018-01-14T11:38:56.086Z,7.30
2018-01-14T11:41:23.673Z,7.30
2018-01-14T11:43:51.185Z,7.30
2018-01-14T11:46:18.703Z,7.40
2018-01-14T11:48:46.227Z,7.40
2018-01-14T11:51:13.766Z,7.50
2018-01-14T11:53:41.317Z,7.60
2018-01-14T11:56:08.835Z,7.50
2018-01-14T11:58:36.358Z,7.40
2018-01-14T12:01:03.938Z,7.50
2018-01-14T12:03:31.459Z,7.50
2018-01-14T12:05:59.024Z,7.50
2018-01-14T12:08:26.584Z,7.40
2018-01-14T12:10:54.187Z,7.50
2018-01-14T12:13:21.729Z,7.50
2018-01-14T12:15:49.269Z,7.50
2018-01-14T12:18:16.810Z,7.40
2018-01-14T12:20:44.331Z,7.30
2018-01-14T12:23:11.890Z,7.30
2018-01-14T12:25:39.449Z,7.40
2018-01-14T12:28:06.996Z,7.40
2018-01-14T12:30:34.528Z,7.40
2018-01-14T12:33:09.927Z,7.40
2018-01-14T12:35:37.487Z,7.40
2018-01-14T12:38:05.835Z,7.40
2018-01-14T12:40:33.387Z,7.40
2018-01-14T12:43:00.908Z,7.50
2018-01-14T12:45:28.466Z,7.50
2018-01-14T12:47:55.976Z,7.60
2018-01-14T12:50:23.523Z,7.60
2018-01-14T12:52:51.151Z,7.50
2018-01-14T12:55:18.730Z,7.50
2018-01-14T12:57:46.276Z,7.40
2018-01-14T13:00:13.822Z,7.40
2018-01-14T13:02:41.381Z,7.50
2018-01-14T13:05:08.961Z,7.40
2018-01-14T13:07:36.544Z,7.40
2018-01-14T13:10:04.065Z,7.30
2018-01-14T13:12:31.613Z,7.40
2018-01-14T13:14:59.270Z,7.50
2018-01-14T13:17:27.665Z,7.60
2018-01-14T13:19:55.223Z,7.60
2018-01-14T13:22:22.793Z,7.60
2018-01-14T13:24:50.320Z,7.60
2018-01-14T13:27:18.657Z,7.70
2018-01-14T13:29:46.173Z,7.70
2018-01-14T13:32:13.728Z,7.60
2018-01-14T13:34:41.315Z,7.60
2018-01-14T13:37:08.828Z,7.60
2018-01-14T13:39:37.108Z,7.50
2018-01-14T13:42:04.665Z,7.50
2018-01-14T13:44:33.026Z,7.50
2018-01-14T13:47:00.575Z,7.50
2018-01-14T13:49:28.088Z,7.60
2018-01-14T13:51:55.621Z,7.70
2018-01-14T13:54:23.223Z,7.70
2018-01-14T13:56:51.149Z,7.70
2018-01-14T13:59:18.721Z,7.60
2018-01-14T14:01:47.032Z,7.60
2018-01-14T14:04:14.553Z,7.60
2018-01-14T14:06:42.861Z,7.70
2018-01-14T14:09:10.404Z,7.70
2018-01-14T14:11:38.003Z,7.60
2018-01-14T14:14:05.542Z,7.60
2018-01-14T14:16:33.062Z,7.70
2018-01-14T14:19:01.383Z,7.70
2018-01-14T14:21:28.957Z,7.60
2018-01-14T14:23:56.479Z,7.60
2018-01-14T14:26:23.987Z,7.50
2018-01-14T14:28:51.540Z,7.50
2018-01-14T14:31:19.125Z,7.60
2018-01-14T14:33:47.297Z,7.60
2018-01-14T14:36:14.879Z,7.60
2018-01-14T14:38:43.186Z,7.50
2018-01-14T14:41:10.788Z,7.60
2018-01-14T14:43:38.316Z,7.60
2018-01-14T14:46:05.960Z,7.60
2018-01-14T14:48:33.476Z,7.50
2018-01-14T14:51:01.036Z,7.60
2018-01-14T14:53:28.564Z,7.60
2018-01-14T14:55:56.153Z,7.60
2018-01-14T14:58:23.676Z,7.60
2018-01-14T15:00:51.200Z,7.60
2018-01-14T15:03:18.766Z,7.60
2018-01-14T15:05:47.065Z,7.70
2018-01-14T15:08:14.595Z,7.70
2018-01-14T15:10:42.872Z,7.90
2018-01-14T15:13:10.515Z,7.90
2018-01-14T15:15:38.106Z,8.00
2018-01-14T15:18:05.663Z,8.10
2018-01-14T15:20:33.198Z,8.00
2018-01-14T15:23:00.744Z,8.00
2018-01-14T15:25:28.305Z,7.90
2018-01-14T15:27:55.858Z,7.90
2018-01-14T15:30:23.414Z,8.00
2018-01-14T15:32:51.241Z,7.90
2018-01-14T15:35:18.987Z,7.80
2018-01-14T15:37:47.399Z,7.90
2018-01-14T15:40:14.963Z,7.90
2018-01-14T15:42:42.570Z,7.90
2018-01-14T15:45:10.155Z,7.80
2018-01-14T15:47:37.910Z,8.00
2018-01-14T15:50:06.257Z,7.90
2018-01-14T15:52:33.874Z,7.90
2018-01-14T15:55:01.848Z,7.80
2018-01-14T15:57:29.414Z,7.80
2018-01-14T15:59:57.002Z,7.70
2018-01-14T16:02:24.596Z,7.70
2018-01-14T16:04:52.225Z,7.70
2018-01-14T16:07:19.791Z,7.70
2018-01-14T16:09:47.390Z,7.60
2018-01-14T16:12:14.922Z,7.60
2018-01-14T16:14:43.266Z,7.70
2018-01-14T16:17:10.850Z,7.70
2018-01-14T16:19:38.365Z,7.80
2018-01-14T16:22:05.917Z,7.80
2018-01-14T16:24:33.563Z,7.70
2018-01-14T16:27:01.090Z,7.70
2018-01-14T16:29:28.692Z,7.60
2018-01-14T16:31:56.215Z,7.60
2018-01-14T16:34:23.866Z,7.60
2018-01-14T16:36:51.432Z,7.60
2018-01-14T16:39:19.764Z,7.30
2018-01-14T16:41:47.340Z,7.30
2018-01-14T16:44:14.912Z,7.30
2018-01-14T16:46:42.438Z,7.20
2018-01-14T16:49:10.224Z,7.20
2018-01-14T16:51:37.739Z,7.20
2018-01-14T16:54:05.350Z,7.10
2018-01-14T16:56:32.882Z,7.10
2018-01-14T16:59:00.392Z,7.00
2018-01-14T17:01:28.002Z,7.00
2018-01-14T17:03:55.570Z,6.90
2018-01-14T17:06:23.133Z,6.80
2018-01-14T17:08:50.659Z,6.80
2018-01-14T17:11:18.249Z,6.80
2018-01-14T17:13:45.842Z,6.80
2018-01-14T17:16:13.626Z,6.70
2018-01-14T17:18:41.245Z,6.70
2018-01-14T17:21:08.787Z,6.60
2018-01-14T17:23:36.300Z,6.50
2018-01-14T17:26:03.846Z,6.50
2018-01-14T17:28:31.368Z,6.40
2018-01-14T17:30:58.880Z,6.30
2018-01-14T17:33:27.437Z,6.20
2018-01-14T17:35:55.261Z,6.30
2018-01-14T17:38:22.824Z,6.20
2018-01-14T17:40:50.598Z,6.10
2018-01-14T17:43:18.358Z,6.10
2018-01-14T17:45:45.943Z,6.10
2018-01-14T17:48:13.472Z,6.10
2018-01-14T17:50:41.036Z,6.10
2018-01-14T17:53:08.835Z,6.10
2018-01-14T17:55:36.359Z,6.20
2018-01-14T17:58:04.236Z,6.20
2018-01-14T18:00:31.751Z,6.10
2018-01-14T18:02:59.304Z,6.10
2018-01-14T18:05:26.830Z,6.10
2018-01-14T18:07:54.379Z,6.10
2018-01-14T18:10:21.889Z,6.10
2018-01-14T18:12:49.477Z,6.20
2018-01-14T18:15:17.237Z,6.20
2018-01-14T18:17:44.759Z,6.20
2018-01-14T18:20:12.537Z,6.10
2018-01-14T18:22:40.896Z,6.20
2018-01-14T18:25:08.455Z,6.10
2018-01-14T18:27:36.018Z,6.10
2018-01-14T18:30:03.599Z,6.10
2018-01-14T18:32:32.168Z,6.10
2018-01-14T18:34:59.692Z,6.10
2018-01-14T18:37:27.464Z,6.20
2018-01-14T18:39:55.063Z,6.10
2018-01-14T18:42:22.818Z,6.10
2018-01-14T18:44:50.384Z,6.20
2018-01-14T18:47:17.997Z,6.10
2018-01-14T18:49:45.596Z,6.10
2018-01-14T18:52:13.213Z,6.10
2018-01-14T18:54:40.796Z,6.10
2018-01-14T18:57:08.398Z,5.90
2018-01-14T18:59:36.729Z,5.90
2018-01-14T19:02:04.324Z,5.90
2018-01-14T19:04:31.911Z,5.90
2018-01-14T19:06:59.519Z,5.80
2018-01-14T19:09:27.191Z,5.70
2018-01-14T19:11:54.768Z,5.70
2018-01-14T19:14:22.345Z,5.70
2018-01-14T19:16:49.920Z,5.70
2018-01-14T19:19:17.568Z,5.70
2018-01-14T19:21:45.180Z,5.70
2018-01-14T19:24:12.762Z,5.70
2018-01-14T19:26:40.352Z,5.70
2018-01-14T19:29:07.918Z,5.60
2018-01-14T19:31:35.531Z,5.50
2018-01-14T19:34:03.310Z,5.40
2018-01-14T19:36:30.900Z,5.40
2018-01-14T19:38:59.189Z,5.30
2018-01-14T19:41:26.789Z,5.30
2018-01-14T19:43:55.209Z,5.50
2018-01-14T19:46:22.817Z,5.40
2018-01-14T19:48:50.388Z,5.50
2018-01-14T19:51:18.030Z,5.50
2018-01-14T19:53:45.619Z,5.50
2018-01-14T19:56:13.220Z,5.30
2018-01-14T19:58:41.590Z,5.30
2018-01-14T20:01:09.931Z,5.30
2018-01-14T20:03:37.550Z,5.30
2018-01-14T20:06:05.122Z,5.30
2018-01-14T20:08:32.738Z,5.30
2018-01-14T20:11:00.266Z,5.10
2018-01-14T20:13:28.215Z,5.20
2018-01-14T20:15:55.793Z,5.20
2018-01-14T20:18:23.427Z,5.20
2018-01-14T20:20:51.023Z,5.20
2018-01-14T20:23:18.610Z,5.20
2018-01-14T20:25:46.991Z,5.20
2018-01-14T20:28:15.334Z,5.00
2018-01-14T20:30:42.874Z,5.00
2018-01-14T20:33:10.472Z,5.00
2018-01-14T20:35:38.062Z,5.10
2018-01-14T20:38:06.394Z,5.00
2018-01-14T20:40:34.005Z,5.00
2018-01-14T20:43:01.605Z,5.10
2018-01-14T20:45:29.212Z,5.00
2018-01-14T20:47:56.774Z,4.90
2018-01-14T20:50:24.375Z,4.90
2018-01-14T20:52:52.010Z,4.90
2018-01-14T20:55:19.593Z,4.90
2018-01-14T20:57:47.190Z,4.90
2018-01-14T21:00:14.765Z,4.90
2018-01-14T21:02:42.328Z,4.80
2018-01-14T21:05:09.852Z,4.80
2018-01-14T21:07:37.441Z,4.90
2018-01-14T21:10:05.025Z,4.90
2018-01-14T21:12:32.620Z,4.80
2018-01-14T21:15:00.229Z,4.90
2018-01-14T21:17:27.831Z,4.80
2018-01-14T21:19:55.402Z,4.80
2018-01-14T21:22:23.236Z,4.90
2018-01-14T21:24:50.561Z,5.00
2018-01-14T21:27:18.122Z,5.00
2018-01-14T21:29:45.722Z,4.90
2018-01-14T21:32:13.276Z,4.90
2018-01-14T21:34:40.802Z,4.80
2018-01-14T21:37:08.385Z,4.90
2018-01-14T21:39:36.937Z,4.90
2018-01-14T21:42:04.468Z,4.80
2018-01-14T21:44:32.075Z,4.70
2018-01-14T21:47:00.410Z,4.90
2018-01-14T21:49:28.813Z,4.90
2018-01-14T21:51:56.417Z,4.80
2018-01-14T21:54:23.946Z,4.80
2018-01-14T21:56:51.530Z,4.90
2018-01-14T21:59:19.845Z,4.80
2018-01-14T22:01:47.438Z,4.80
2018-01-14T22:04:15.033Z,4.80
2018-01-14T22:06:42.644Z,4.80
2018-01-14T22:09:10.248Z,4.60
2018-01-14T22:11:37.802Z,4.60
2018-01-14T22:14:06.117Z,4.80
2018-01-14T22:16:33.885Z,4.80
2018-01-14T22:19:01.488Z,4.70
2018-01-14T22:21:29.037Z,4.80
2018-01-14T22:23:56.629Z,4.80
2018-01-14T22:26:24.958Z,4.70
2018-01-14T22:28:52.776Z,4.70
2018-01-14T22:31:21.108Z,4.70
2018-01-14T22:33:48.656Z,4.70
2018-01-14T22:36:16.246Z,4.60
2018-01-14T22:38:43.854Z,4.50
2018-01-14T22:41:11.395Z,4.60
2018-01-14T22:43:39.718Z,4.50
2018-01-14T22:46:07.524Z,4.50
2018-01-14T22:48:35.821Z,4.70
2018-01-14T22:51:03.420Z,4.70
2018-01-14T22:53:31.013Z,4.70
2018-01-14T22:55:58.572Z,4.70
2018-01-14T22:58:26.090Z,4.70
2018-01-14T23:00:53.679Z,4.70
2018-01-14T23:03:21.223Z,4.60
2018-01-14T23:05:48.810Z,4.60
2018-01-14T23:08:16.374Z,4.60
2018-01-14T23:10:43.942Z,4.50
2018-01-14T23:13:11.470Z,4.40
2018-01-14T23:15:39.012Z,4.20
2018-01-14T23:18:06.552Z,4.30
2018-01-14T23:20:34.063Z,4.30
2018-01-14T23:23:01.616Z,4.20
2018-01-14T23:25:29.130Z,4.20
2018-01-14T23:27:56.689Z,4.20
2018-01-14T23:30:24.199Z,4.30
2018-01-14T23:32:51.747Z,4.30
2018-01-14T23:35:19.290Z,4.40
2018-01-14T23:37:46.883Z,4.40
2018-01-14T23:40:14.393Z,4.50
2018-01-14T23:42:41.949Z,4.50
2018-01-14T23:45:09.488Z,4.40
2018-01-14T23:47:37.033Z,4.40
2018-01-14T23:50:04.545Z,4.40
2018-01-14T23:52:32.092Z,4.40
2018-01-14T23:54:59.615Z,4.30
2018-01-14T23:57:27.944Z,4.20
2018-01-14T23:59:55.451Z,4.20
